East Concord, Vermont
Current Conditions -  °F | °C
As of 3:52 PM on Tuesday 21 Oct 2014 (Local Time) from KHIE Reporting Station
Light Rain Light Rain  
Wind Chill: 45°   Ceiling: 5500
Heat Index: 48°   Visibility: 10mi
Dew Point: 44°   Wind: 7mph
Humidity: 86%   Direction: 70°ENE
Pressure: 29.99"   Gusts: NA
Location:  44.4777°N, 71.7112°W
Report Text: KHIE 211952Z AUTO 07006KT 10SM -RA SCT034 OVC055 09/07 A2999 RMK AO2 RAE28B49 SLP164 P0000 T00890067
Loading
Personal Weather Stations






























Interactive Weather Map
Tropical Storm Tracking
New forecast layout! Learn more

10-Day Weather Forecast

Advertisements
Track Severe Weather on mobile